Aérodrome :
LOGIN :

S'inscrire | Disclaimer

   EN    FR    IT 

 










Légende :    VFR   VFR Marginal   IFR   IFR Intensif   IFR Très Intensif
Visi : 
Plafond : 
>= 8 km
>= 3000ft
5 à 8 km
1000 à 3000 ft
1500m à 5 km
500 à 1000 ft
800 à 1500m
200 à 500 ft
< 800m
< 200 ft
Symboles :   Orages  Brouillard  Fortes neiges  Fortes précipitations  Vent > 20 kt
SIGMETs :   Divers  Orages  Givrage  Turbulence  Onde Orograph.  Cendres Volcan.






- Altitude de l'aérodrome : 160 ft
- Code IATA : LRT


LFRH - Lorient Lann Bihoue

DERNIER METAR :
  • 190430Z AUTO 07007KT 6000 FEW037 BKN054 02/02 Q1016 TEMPO 0300 FG VV///

METARs EXPIRÉS :
  • 190400Z AUTO 08007KT 4000 BR BKN034 BKN043 OVC054 02/02 Q1017 TEMPO 0300 FG VV///
  • 190330Z AUTO 08006KT 3600 BR FEW034 BKN046 02/02 Q1017 TEMPO 0300 FG VV///
  • 190300Z AUTO 08006KT 2000 BR NSC 02/02 Q1017 TEMPO 0300 FG VV///
  • 190230Z AUTO 08006KT 1900 R25/1300N BR NSC 02/01 Q1017 TEMPO 0300 FG VV///
  • 190200Z AUTO 06005KT 3200 BR NSC 03/03 Q1017 TEMPO 0300 FG VV///

TAF TAF LFRH
Valide du 19 à 00h jusqu'au 20 à 00h UTC


182300Z 1900/1924 10005KT 1200 BR NSC
TEMPO 1900/1909 0300 FG VV///
BECMG 1910/1912 5000 OVC008
BECMG 1912/1915 17010KT CAVOK
BECMG 1922/1924 BKN018



MET'MAP, la Météo Aéronautique d'un coup d'oeil ! - Copyright ORBIFLY Décembre 2007 - Disclaimer

ORBIFLY MET'MAP TEAM :

Programmation & Développement : Alexandra Zaïnal
Conception & Développement : Baudouin d'Aumeries
Co-Programmation & Développement : Marc-Olivier Méhu
Soutien technique & logistique : Manuel Goepfert

Contact : metmap@orbifly.com




SOURCES & CREDITS :

   NOAA